Time;durP1;ratioP1;P1;durP2;ratioP2;P2;SDS_P1;SDS_P2;PMS_P1;PMS_P2;Temp;Humidity;BMP_temperature;BMP_pressure;BME280_temperature;BME280_humidity;BME280_pressure;Samples;Min_cycle;Max_cycle;Signal;HPM_P1;HPM_P2
2022/06/30 00:00:32;;;;;;;9.90;9.00;;;;;;;;;;102254;1336;22607;-29
2022/06/30 00:03:01;;;;;;;12.10;8.90;;;;;;;;;;102330;1335;22593;-29
2022/06/30 00:05:30;;;;;;;9.60;8.10;;;;;;;;;;102312;1336;22598;-31
2022/06/30 00:07:58;;;;;;;13.80;11.00;;;;;;;;;;102297;1335;22669;-27
2022/06/30 00:10:27;;;;;;;8.30;7.60;;;;;;;;;;102298;1335;22639;-29
2022/06/30 00:12:56;;;;;;;14.90;10.80;;;;;;;;;;102246;1335;22598;-27
2022/06/30 00:15:27;;;;;;;18.80;17.10;;;;;;;;;;102283;1335;22636;-27
2022/06/30 00:17:56;;;;;;;14.80;13.40;;;;;;;;;;102308;1335;22595;-29
2022/06/30 00:20:25;;;;;;;10.60;8.90;;;;;;;;;;102243;1336;22579;-27
2022/06/30 00:22:54;;;;;;;26.20;23.60;;;;;;;;;;102217;1336;22691;-25
2022/06/30 00:25:23;;;;;;;10.60;9.70;;;;;;;;;;102214;1336;22601;-29
2022/06/30 00:27:52;;;;;;;12.70;9.40;;;;;;;;;;102042;1336;22600;-27
2022/06/30 00:30:20;;;;;;;7.50;6.80;;;;;;;;;;102189;1328;22709;-25
2022/06/30 00:32:49;;;;;;;6.50;6.00;;;;;;;;;;102204;1329;22589;-29
2022/06/30 00:35:18;;;;;;;7.00;5.70;;;;;;;;;;102191;1336;22696;-25
2022/06/30 00:37:47;;;;;;;7.60;7.00;;;;;;;;;;102285;1335;22698;-25
2022/06/30 00:40:16;;;;;;;8.60;7.80;;;;;;;;;;102237;1336;22549;-25
2022/06/30 00:42:45;;;;;;;9.50;8.10;;;;;;;;;;102265;1336;22854;-29
2022/06/30 00:45:13;;;;;;;3.90;3.50;;;;;;;;;;102238;1328;22689;-31
2022/06/30 00:47:42;;;;;;;9.00;7.90;;;;;;;;;;102325;1336;22612;-25
2022/06/30 00:50:11;;;;;;;13.00;10.30;;;;;;;;;;102303;1335;23229;-29
2022/06/30 00:52:40;;;;;;;9.70;6.30;;;;;;;;;;102313;1335;22743;-27
2022/06/30 00:55:09;;;;;;;11.30;10.20;;;;;;;;;;101943;1336;22621;-27
2022/06/30 00:57:37;;;;;;;12.00;8.20;;;;;;;;;;102290;1336;22609;-31
2022/06/30 01:00:07;;;;;;;11.90;9.50;;;;;;;;;;102218;1329;22629;-26
2022/06/30 01:02:36;;;;;;;10.10;9.10;;;;;;;;;;102170;1336;22718;-29
2022/06/30 01:05:05;;;;;;;11.40;9.80;;;;;;;;;;102149;1335;22779;-28
2022/06/30 01:07:34;;;;;;;11.90;9.90;;;;;;;;;;102209;1336;22649;-25
2022/06/30 01:15:08;;;;;;;15.30;8.90;;;;;;;;;;102254;1336;22664;-25
2022/06/30 01:17:37;;;;;;;9.30;8.30;;;;;;;;;;102206;1336;22607;-29
2022/06/30 01:20:06;;;;;;;10.70;8.60;;;;;;;;;;102182;1335;22607;-26
2022/06/30 01:22:35;;;;;;;9.00;7.50;;;;;;;;;;102228;1335;22593;-26
2022/06/30 01:25:04;;;;;;;11.30;8.80;;;;;;;;;;102221;1336;22598;-30
2022/06/30 01:27:33;;;;;;;9.50;8.70;;;;;;;;;;102225;1336;22708;-26
2022/06/30 01:30:02;;;;;;;11.20;8.70;;;;;;;;;;102318;1335;22618;-26
2022/06/30 01:32:31;;;;;;;9.40;7.70;;;;;;;;;;102249;1336;22671;-25
2022/06/30 01:35:00;;;;;;;9.60;8.60;;;;;;;;;;102330;1336;25264;-27
2022/06/30 01:37:43;;;;;;;15.00;9.30;;;;;;;;;;102088;1336;22709;-31
2022/06/30 01:40:11;;;;;;;9.30;8.50;;;;;;;;;;102244;1335;22609;-31
2022/06/30 01:42:40;;;;;;;9.00;7.30;;;;;;;;;;102303;1336;22611;-25
2022/06/30 01:45:09;;;;;;;10.10;8.80;;;;;;;;;;102253;1329;22591;-24
2022/06/30 01:47:38;;;;;;;9.80;8.90;;;;;;;;;;102266;1335;22598;-25
2022/06/30 01:50:08;;;;;;;10.10;8.70;;;;;;;;;;102303;1335;22598;-29
2022/06/30 01:52:37;;;;;;;10.80;9.70;;;;;;;;;;101564;1335;1002671;-29
2022/06/30 01:55:07;;;;;;;9.90;8.70;;;;;;;;;;102268;1336;22597;-31
2022/06/30 01:57:36;;;;;;;9.90;7.80;;;;;;;;;;102290;1335;22587;-29
2022/06/30 02:00:06;;;;;;;9.00;8.30;;;;;;;;;;102203;1329;22662;-29
2022/06/30 02:02:35;;;;;;;7.50;6.80;;;;;;;;;;102247;1335;24167;-23
2022/06/30 02:05:04;;;;;;;6.00;5.50;;;;;;;;;;102333;1336;22586;-26
2022/06/30 02:07:36;;;;;;;18.70;6.30;;;;;;;;;;102250;1336;23034;-25
2022/06/30 02:10:05;;;;;;;7.70;6.10;;;;;;;;;;102295;1335;22697;-25
2022/06/30 02:15:07;;;;;;;6.00;4.10;;;;;;;;;;102302;1336;22623;-25
2022/06/30 02:17:36;;;;;;;4.40;4.00;;;;;;;;;;102288;1336;22593;-29
2022/06/30 02:20:07;;;;;;;4.20;3.60;;;;;;;;;;102213;1336;22617;-25
2022/06/30 02:22:36;;;;;;;7.20;3.80;;;;;;;;;;102299;1335;22600;-25
2022/06/30 02:25:06;;;;;;;18.90;2.80;;;;;;;;;;102192;1335;22668;-25
2022/06/30 02:27:35;;;;;;;3.40;3.00;;;;;;;;;;102054;1336;25903;-30
2022/06/30 02:30:06;;;;;;;3.80;2.20;;;;;;;;;;102224;1336;22596;-30
2022/06/30 02:32:35;;;;;;;5.20;2.60;;;;;;;;;;102018;1336;22741;-24
2022/06/30 02:35:04;;;;;;;2.30;1.90;;;;;;;;;;102180;1336;22596;-29
2022/06/30 02:37:33;;;;;;;1.60;1.40;;;;;;;;;;102267;1336;22599;-29
2022/06/30 02:40:02;;;;;;;2.10;1.20;;;;;;;;;;102232;1336;22594;-29
2022/06/30 02:42:31;;;;;;;1.50;1.30;;;;;;;;;;102263;1336;22599;-29
2022/06/30 02:44:59;;;;;;;1.60;1.50;;;;;;;;;;102222;1336;22604;-39
2022/06/30 02:47:30;;;;;;;1.90;1.20;;;;;;;;;;102281;1336;22798;-29
2022/06/30 02:49:59;;;;;;;3.20;1.10;;;;;;;;;;102244;1336;22827;-29
2022/06/30 02:52:29;;;;;;;3.10;1.60;;;;;;;;;;102195;1336;22620;-25
2022/06/30 02:54:58;;;;;;;2.00;1.40;;;;;;;;;;102302;1329;22583;-29
2022/06/30 02:57:27;;;;;;;2.80;1.00;;;;;;;;;;102344;1333;22719;-30
2022/06/30 02:59:56;;;;;;;5.10;1.40;;;;;;;;;;102246;1335;22610;-29
2022/06/30 03:02:24;;;;;;;2.90;1.50;;;;;;;;;;102336;1335;22703;-29
2022/06/30 03:04:53;;;;;;;3.90;1.30;;;;;;;;;;102375;1335;22608;-28
2022/06/30 03:07:22;;;;;;;1.30;1.00;;;;;;;;;;102316;1335;23109;-24
2022/06/30 03:09:51;;;;;;;1.90;1.30;;;;;;;;;;102421;1335;22702;-22
2022/06/30 03:12:20;;;;;;;1.30;0.90;;;;;;;;;;102397;1335;22690;-29
2022/06/30 03:14:49;;;;;;;2.00;1.20;;;;;;;;;;102378;1335;22626;-25
2022/06/30 03:17:18;;;;;;;4.10;1.30;;;;;;;;;;102374;1335;22610;-25
2022/06/30 03:19:46;;;;;;;1.50;1.00;;;;;;;;;;102285;1335;24255;-29
2022/06/30 03:22:15;;;;;;;1.30;0.70;;;;;;;;;;102306;1335;22622;-29
2022/06/30 03:24:44;;;;;;;1.00;0.70;;;;;;;;;;102343;1335;22722;-24
2022/06/30 03:27:14;;;;;;;3.60;1.00;;;;;;;;;;102398;1335;22910;-26
2022/06/30 03:29:43;;;;;;;1.60;1.10;;;;;;;;;;102341;1335;22889;-26
2022/06/30 03:32:12;;;;;;;2.30;1.20;;;;;;;;;;102390;1335;22714;-29
2022/06/30 03:34:40;;;;;;;2.00;1.20;;;;;;;;;;102324;1335;22594;-29
2022/06/30 03:37:09;;;;;;;1.10;1.00;;;;;;;;;;102346;1335;22656;-29
2022/06/30 03:39:38;;;;;;;1.80;1.10;;;;;;;;;;102281;1335;22622;-27
2022/06/30 03:42:08;;;;;;;4.10;1.00;;;;;;;;;;102388;1335;22602;-29
2022/06/30 03:44:37;;;;;;;1.80;1.30;;;;;;;;;;102315;1335;22598;-28
2022/06/30 03:47:06;;;;;;;4.60;1.30;;;;;;;;;;102361;1335;22671;-23
2022/06/30 03:49:34;;;;;;;1.60;1.10;;;;;;;;;;102268;1335;22600;-26
2022/06/30 03:52:04;;;;;;;1.30;1.10;;;;;;;;;;102304;1335;22596;-27
2022/06/30 03:54:32;;;;;;;3.40;1.50;;;;;;;;;;102355;1329;22628;-31
2022/06/30 03:57:01;;;;;;;3.10;2.00;;;;;;;;;;102274;1336;22610;-29
2022/06/30 03:59:30;;;;;;;3.40;2.00;;;;;;;;;;102395;1335;22597;-25
2022/06/30 04:01:59;;;;;;;2.70;1.80;;;;;;;;;;102300;1335;22609;-25
2022/06/30 04:04:28;;;;;;;2.80;1.40;;;;;;;;;;102389;1335;22588;-30
2022/06/30 04:06:57;;;;;;;1.60;1.40;;;;;;;;;;102333;1335;22579;-26
2022/06/30 04:09:26;;;;;;;6.90;1.40;;;;;;;;;;102401;1334;22597;-25
2022/06/30 04:11:54;;;;;;;2.00;1.00;;;;;;;;;;102419;1335;22644;-31
2022/06/30 04:14:23;;;;;;;1.10;0.90;;;;;;;;;;102315;1329;22711;-25
2022/06/30 04:16:52;;;;;;;0.80;0.70;;;;;;;;;;102297;1335;22792;-25
2022/06/30 04:19:21;;;;;;;1.00;0.70;;;;;;;;;;102357;1327;22659;-29
2022/06/30 04:21:50;;;;;;;2.00;0.70;;;;;;;;;;102356;1334;22600;-29
2022/06/30 04:24:18;;;;;;;1.50;0.80;;;;;;;;;;102401;1335;22688;-25
2022/06/30 04:26:47;;;;;;;1.40;0.80;;;;;;;;;;102194;1336;22771;-29
2022/06/30 04:29:16;;;;;;;2.50;1.50;;;;;;;;;;102340;1334;22583;-29
2022/06/30 04:34:18;;;;;;;1.00;0.70;;;;;;;;;;102370;1335;22594;-30
2022/06/30 04:36:47;;;;;;;2.70;0.90;;;;;;;;;;102343;1335;22611;-26
2022/06/30 04:39:16;;;;;;;0.50;0.50;;;;;;;;;;102381;1335;22729;-25
2022/06/30 04:41:45;;;;;;;1.00;0.60;;;;;;;;;;102271;1335;22865;-29
2022/06/30 04:44:13;;;;;;;0.80;0.70;;;;;;;;;;102313;1335;22603;-29
2022/06/30 04:46:42;;;;;;;1.70;1.00;;;;;;;;;;102395;1335;25400;-29
2022/06/30 04:49:11;;;;;;;2.20;1.20;;;;;;;;;;102391;1334;22672;-25
2022/06/30 04:51:40;;;;;;;1.30;0.80;;;;;;;;;;102358;1335;22599;-27
2022/06/30 04:54:09;;;;;;;1.00;0.90;;;;;;;;;;102346;1335;22675;-26
2022/06/30 04:56:38;;;;;;;1.50;1.30;;;;;;;;;;102393;1335;22699;-27
2022/06/30 04:59:06;;;;;;;1.20;0.80;;;;;;;;;;102390;1329;22600;-27
2022/06/30 05:01:35;;;;;;;2.50;1.10;;;;;;;;;;102412;1334;22629;-25
2022/06/30 05:04:04;;;;;;;1.10;1.00;;;;;;;;;;102340;1335;22594;-25
2022/06/30 05:06:33;;;;;;;0.80;0.70;;;;;;;;;;102323;1335;22607;-25
2022/06/30 05:09:02;;;;;;;3.10;1.30;;;;;;;;;;102336;1335;23012;-26
2022/06/30 05:11:31;;;;;;;1.90;1.10;;;;;;;;;;102369;1335;22604;-27
2022/06/30 05:13:59;;;;;;;3.00;0.70;;;;;;;;;;102264;1335;22612;-29
2022/06/30 05:16:28;;;;;;;1.30;1.10;;;;;;;;;;102371;1335;22602;-25
2022/06/30 05:18:57;;;;;;;1.00;0.90;;;;;;;;;;102390;1330;22744;-31
2022/06/30 05:21:26;;;;;;;1.50;1.00;;;;;;;;;;102348;1335;22577;-26
2022/06/30 05:26:28;;;;;;;1.00;0.90;;;;;;;;;;102336;1335;22723;-29
2022/06/30 05:28:57;;;;;;;1.00;0.80;;;;;;;;;;102386;1335;22592;-29
2022/06/30 05:31:26;;;;;;;1.50;0.80;;;;;;;;;;102348;1335;22763;-25
2022/06/30 05:33:55;;;;;;;1.50;1.20;;;;;;;;;;102411;1335;23140;-31
2022/06/30 05:36:24;;;;;;;3.20;0.90;;;;;;;;;;102378;1332;22607;-29
2022/06/30 05:38:52;;;;;;;1.20;1.00;;;;;;;;;;102383;1335;22597;-30
2022/06/30 05:41:21;;;;;;;2.20;0.90;;;;;;;;;;102405;1335;22593;-25
2022/06/30 05:43:52;;;;;;;1.50;1.20;;;;;;;;;;102400;1334;22605;-25
2022/06/30 05:46:20;;;;;;;1.00;0.90;;;;;;;;;;102381;1335;22823;-29
2022/06/30 05:48:49;;;;;;;1.40;0.70;;;;;;;;;;102276;1335;22624;-25
2022/06/30 05:51:18;;;;;;;0.90;0.80;;;;;;;;;;102394;1334;22619;-31
2022/06/30 05:53:47;;;;;;;3.20;1.70;;;;;;;;;;102366;1335;22714;-29
2022/06/30 05:56:16;;;;;;;1.40;1.10;;;;;;;;;;102351;1329;22597;-28
2022/06/30 05:58:45;;;;;;;1.80;1.70;;;;;;;;;;102301;1335;22725;-25
2022/06/30 06:01:14;;;;;;;1.50;1.40;;;;;;;;;;102371;1327;22820;-25
2022/06/30 06:03:43;;;;;;;3.00;1.70;;;;;;;;;;102337;1335;22681;-28
2022/06/30 06:06:11;;;;;;;1.40;1.10;;;;;;;;;;102274;1335;22684;-25
2022/06/30 06:08:41;;;;;;;2.30;2.10;;;;;;;;;;102355;1335;22615;-29
2022/06/30 06:11:09;;;;;;;4.00;2.30;;;;;;;;;;102414;1332;22705;-24
2022/06/30 06:13:38;;;;;;;4.10;2.70;;;;;;;;;;102207;1336;22608;-29
2022/06/30 06:16:07;;;;;;;3.70;3.30;;;;;;;;;;102299;1336;22627;-25
2022/06/30 06:18:36;;;;;;;4.90;3.70;;;;;;;;;;102310;1335;77781;-27
2022/06/30 06:21:05;;;;;;;3.70;3.20;;;;;;;;;;102390;1335;22600;-29
2022/06/30 06:23:33;;;;;;;9.10;3.10;;;;;;;;;;102309;1335;22599;-29
2022/06/30 06:26:02;;;;;;;3.80;3.30;;;;;;;;;;102308;1335;22618;-29
2022/06/30 06:31:03;;;;;;;5.20;4.40;;;;;;;;;;102370;1335;22602;-25
2022/06/30 06:33:32;;;;;;;5.70;4.90;;;;;;;;;;102348;1335;22666;-25
2022/06/30 06:36:02;;;;;;;5.80;5.00;;;;;;;;;;102335;1335;22612;-25
2022/06/30 06:38:31;;;;;;;5.30;4.70;;;;;;;;;;102406;1335;22588;-29
2022/06/30 06:40:59;;;;;;;5.60;4.60;;;;;;;;;;102367;1335;22608;-29
2022/06/30 06:43:28;;;;;;;5.40;4.70;;;;;;;;;;102225;1335;22600;-25
2022/06/30 06:45:57;;;;;;;5.20;4.30;;;;;;;;;;102368;1335;22707;-26
2022/06/30 06:48:26;;;;;;;6.70;3.70;;;;;;;;;;102346;1335;22602;-23
2022/06/30 06:50:55;;;;;;;4.70;4.40;;;;;;;;;;102340;1335;22600;-30
2022/06/30 06:53:24;;;;;;;5.50;4.20;;;;;;;;;;102331;1336;22600;-28
2022/06/30 06:55:52;;;;;;;5.30;4.40;;;;;;;;;;102368;1332;22598;-26
2022/06/30 06:58:21;;;;;;;8.50;4.00;;;;;;;;;;102272;1336;22596;-25
2022/06/30 07:00:52;;;;;;;5.30;4.90;;;;;;;;;;102324;1335;22608;-27
2022/06/30 07:03:21;;;;;;;4.70;4.30;;;;;;;;;;102376;1336;22601;-31
2022/06/30 07:05:50;;;;;;;5.90;5.30;;;;;;;;;;102432;1335;22615;-28
2022/06/30 07:08:19;;;;;;;5.20;4.80;;;;;;;;;;102342;1336;22698;-25
2022/06/30 07:10:48;;;;;;;6.00;5.50;;;;;;;;;;102299;1335;22595;-29
2022/06/30 07:13:17;;;;;;;4.70;4.40;;;;;;;;;;102380;1336;22619;-29
2022/06/30 07:15:46;;;;;;;4.90;4.40;;;;;;;;;;102326;1335;22628;-29
2022/06/30 07:18:15;;;;;;;6.70;6.00;;;;;;;;;;102316;1335;22600;-29
2022/06/30 07:20:43;;;;;;;4.70;4.40;;;;;;;;;;102316;1328;22620;-26
2022/06/30 07:23:21;;;;;;;5.20;4.60;;;;;;;;;;102330;1335;22648;-25
2022/06/30 07:25:50;;;;;;;4.80;4.30;;;;;;;;;;102347;1335;22639;-31
2022/06/30 07:28:18;;;;;;;6.90;5.90;;;;;;;;;;102332;1335;22695;-29
2022/06/30 07:30:47;;;;;;;9.40;5.70;;;;;;;;;;102368;1328;22676;-31
2022/06/30 07:33:17;;;;;;;7.50;6.70;;;;;;;;;;102368;1335;22649;-29
2022/06/30 07:35:46;;;;;;;8.50;6.90;;;;;;;;;;102362;1335;22599;-29
2022/06/30 07:38:15;;;;;;;8.90;6.30;;;;;;;;;;102307;1334;26130;-29
2022/06/30 07:40:44;;;;;;;6.60;6.00;;;;;;;;;;102329;1335;22749;-29
2022/06/30 07:43:12;;;;;;;5.30;4.90;;;;;;;;;;102365;1332;22725;-25
2022/06/30 07:45:41;;;;;;;6.40;4.60;;;;;;;;;;102312;1335;22605;-25
2022/06/30 07:48:10;;;;;;;7.20;6.60;;;;;;;;;;102276;1335;22675;-29
2022/06/30 07:50:39;;;;;;;6.40;5.90;;;;;;;;;;102343;1335;22565;-28
2022/06/30 07:53:08;;;;;;;7.60;6.90;;;;;;;;;;102313;1335;22607;-26
2022/06/30 07:55:37;;;;;;;8.00;7.00;;;;;;;;;;102289;1335;22648;-29
2022/06/30 07:58:06;;;;;;;8.80;8.20;;;;;;;;;;102348;1335;23025;-26
2022/06/30 08:00:35;;;;;;;22.20;18.70;;;;;;;;;;102333;1335;22596;-30
2022/06/30 08:03:04;;;;;;;14.90;13.80;;;;;;;;;;102358;1335;22624;-29
2022/06/30 08:05:33;;;;;;;7.00;6.40;;;;;;;;;;102420;1335;22616;-27
2022/06/30 08:08:02;;;;;;;11.70;5.60;;;;;;;;;;102337;1335;22599;-27
2022/06/30 08:10:31;;;;;;;8.80;6.40;;;;;;;;;;102294;1335;22618;-25
2022/06/30 08:12:59;;;;;;;8.30;6.50;;;;;;;;;;102348;1335;22804;-24
2022/06/30 08:15:28;;;;;;;7.10;6.30;;;;;;;;;;102404;1329;23055;-25
2022/06/30 08:18:01;;;;;;;9.60;8.60;;;;;;;;;;102343;1335;25370;-24
2022/06/30 08:20:30;;;;;;;8.90;6.30;;;;;;;;;;102315;1335;22610;-24
2022/06/30 08:22:59;;;;;;;6.80;6.20;;;;;;;;;;102351;1335;22717;-29
2022/06/30 08:25:28;;;;;;;9.90;7.50;;;;;;;;;;102241;1335;22618;-29
2022/06/30 08:27:56;;;;;;;7.20;6.70;;;;;;;;;;102304;1335;22618;-24
2022/06/30 08:30:25;;;;;;;10.80;7.00;;;;;;;;;;102372;1336;22822;-26
2022/06/30 08:32:54;;;;;;;11.80;6.90;;;;;;;;;;102393;1335;22618;-25
2022/06/30 08:35:23;;;;;;;8.10;7.40;;;;;;;;;;102388;1335;22640;-23
2022/06/30 08:37:52;;;;;;;9.20;7.10;;;;;;;;;;102296;1335;22610;-25
2022/06/30 08:42:54;;;;;;;9.00;7.70;;;;;;;;;;102328;1335;22677;-29
2022/06/30 08:45:24;;;;;;;7.10;6.20;;;;;;;;;;102306;1335;22611;-25
2022/06/30 08:47:53;;;;;;;7.60;6.90;;;;;;;;;;102324;1335;22616;-25
2022/06/30 08:50:22;;;;;;;7.30;6.80;;;;;;;;;;102394;1335;22614;-30
2022/06/30 08:52:52;;;;;;;8.20;7.20;;;;;;;;;;102322;1335;22715;-29
2022/06/30 08:55:23;;;;;;;6.70;5.90;;;;;;;;;;102353;1330;22620;-25
2022/06/30 08:57:54;;;;;;;10.60;7.00;;;;;;;;;;102509;1335;22595;-30
2022/06/30 09:00:23;;;;;;;6.20;5.00;;;;;;;;;;102494;1333;25496;-26
2022/06/30 09:02:52;;;;;;;6.90;6.40;;;;;;;;;;102484;1335;22569;-30
2022/06/30 09:05:21;;;;;;;8.30;7.20;;;;;;;;;;102477;1334;22574;-30
2022/06/30 09:07:50;;;;;;;5.50;5.20;;;;;;;;;;102459;1335;22620;-30
2022/06/30 09:10:28;;;;;;;7.30;6.70;;;;;;;;;;102493;1335;22596;-30
2022/06/30 09:13:05;;;;;;;7.90;6.60;;;;;;;;;;102547;1336;22593;-26
2022/06/30 09:15:43;;;;;;;7.50;6.90;;;;;;;;;;102508;1335;22598;-28
2022/06/30 09:18:23;;;;;;;9.60;8.80;;;;;;;;;;102515;1335;22594;-30
2022/06/30 09:21:00;;;;;;;6.90;5.10;;;;;;;;;;102436;1335;22623;-26
2022/06/30 09:23:37;;;;;;;7.10;6.30;;;;;;;;;;102527;1335;22615;-30
2022/06/30 09:26:16;;;;;;;6.30;5.50;;;;;;;;;;102438;1334;22690;-29
2022/06/30 09:28:54;;;;;;;14.00;6.60;;;;;;;;;;102486;1335;22610;-29
2022/06/30 09:31:34;;;;;;;7.90;6.00;;;;;;;;;;102473;1335;22600;-40
2022/06/30 09:34:16;;;;;;;6.20;5.70;;;;;;;;;;102500;1335;22871;-28
2022/06/30 09:36:53;;;;;;;6.70;5.70;;;;;;;;;;102472;1335;22692;-24
2022/06/30 09:39:31;;;;;;;8.10;7.40;;;;;;;;;;102549;1335;22641;-24
2022/06/30 09:42:09;;;;;;;16.20;5.90;;;;;;;;;;102471;1335;22617;-24
2022/06/30 09:44:47;;;;;;;8.30;6.40;;;;;;;;;;102541;1335;22603;-29
2022/06/30 09:47:25;;;;;;;8.30;6.00;;;;;;;;;;102468;1335;22599;-29
2022/06/30 09:50:04;;;;;;;11.20;7.00;;;;;;;;;;102529;1335;22742;-28
2022/06/30 09:52:41;;;;;;;5.90;5.40;;;;;;;;;;102520;1335;22625;-28
2022/06/30 09:55:18;;;;;;;6.20;5.70;;;;;;;;;;102552;1335;22670;-24
2022/06/30 09:57:56;;;;;;;5.90;5.50;;;;;;;;;;102467;1335;22648;-28
2022/06/30 10:00:41;;;;;;;6.00;5.20;;;;;;;;;;102442;1334;22611;-24
2022/06/30 10:03:19;;;;;;;8.20;5.60;;;;;;;;;;102500;1335;22604;-28
2022/06/30 10:06:00;;;;;;;6.50;5.10;;;;;;;;;;102529;1335;22600;-24
2022/06/30 10:08:37;;;;;;;6.40;5.50;;;;;;;;;;102511;1335;22681;-25
2022/06/30 10:11:14;;;;;;;5.90;5.40;;;;;;;;;;102511;1335;22613;-29
2022/06/30 10:13:52;;;;;;;6.10;5.50;;;;;;;;;;102496;1335;22601;-24
2022/06/30 10:16:30;;;;;;;7.90;6.20;;;;;;;;;;102514;1335;22714;-28
2022/06/30 10:19:08;;;;;;;4.60;4.00;;;;;;;;;;102527;1335;22604;-29
2022/06/30 10:21:46;;;;;;;3.90;3.60;;;;;;;;;;102436;1335;22710;-29
2022/06/30 10:24:23;;;;;;;7.80;5.50;;;;;;;;;;102477;1335;22601;-29
2022/06/30 10:29:44;;;;;;;6.40;5.90;;;;;;;;;;102510;1335;22865;-29
2022/06/30 10:32:26;;;;;;;5.10;4.70;;;;;;;;;;102524;1335;22595;-24
2022/06/30 10:35:07;;;;;;;5.70;5.30;;;;;;;;;;102473;1335;22600;-25
2022/06/30 10:37:46;;;;;;;5.30;4.80;;;;;;;;;;102585;1335;22741;-25
2022/06/30 10:40:27;;;;;;;4.80;4.40;;;;;;;;;;102511;1335;22568;-25
2022/06/30 10:43:04;;;;;;;6.40;5.50;;;;;;;;;;102465;1335;22606;-29
2022/06/30 10:45:52;;;;;;;5.90;4.30;;;;;;;;;;102344;1335;22600;-28
2022/06/30 10:48:33;;;;;;;4.60;4.20;;;;;;;;;;102510;1329;22615;-24
2022/06/30 10:51:14;;;;;;;5.00;4.60;;;;;;;;;;102416;1336;22584;-29
2022/06/30 10:53:52;;;;;;;5.60;5.20;;;;;;;;;;102541;1329;22646;-25
2022/06/30 10:56:41;;;;;;;5.40;5.00;;;;;;;;;;102499;1335;22614;-29
2022/06/30 10:59:30;;;;;;;6.10;5.30;;;;;;;;;;102409;1335;22602;-25
2022/06/30 11:02:09;;;;;;;5.10;4.70;;;;;;;;;;102473;1335;22586;-24
2022/06/30 11:04:47;;;;;;;9.00;5.40;;;;;;;;;;102581;1335;22605;-30
2022/06/30 11:07:25;;;;;;;6.20;5.70;;;;;;;;;;102498;1335;22853;-28
2022/06/30 11:10:02;;;;;;;4.60;4.30;;;;;;;;;;102435;1329;22722;-28
2022/06/30 11:12:40;;;;;;;5.10;4.80;;;;;;;;;;102435;1335;22684;-24
2022/06/30 11:15:17;;;;;;;10.70;5.90;;;;;;;;;;102395;1335;22642;-25
2022/06/30 11:17:54;;;;;;;4.60;4.20;;;;;;;;;;102484;1335;22602;-29
2022/06/30 11:20:32;;;;;;;6.40;5.90;;;;;;;;;;102451;1335;22619;-25
2022/06/30 11:23:09;;;;;;;6.20;4.80;;;;;;;;;;102468;1335;22627;-24
2022/06/30 11:28:28;;;;;;;5.00;4.50;;;;;;;;;;102532;1334;22651;-28
2022/06/30 11:31:05;;;;;;;4.90;4.40;;;;;;;;;;102518;1335;22601;-28
2022/06/30 11:33:46;;;;;;;5.50;5.10;;;;;;;;;;102580;1335;23114;-29
2022/06/30 11:36:23;;;;;;;4.90;4.40;;;;;;;;;;102617;1334;22610;-25
2022/06/30 11:39:03;;;;;;;6.70;6.10;;;;;;;;;;102475;1335;22595;-29
2022/06/30 11:44:22;;;;;;;;;;;;;;;;;;102436;1335;22714;-24
2022/06/30 11:47:01;;;;;;;6.60;5.40;;;;;;;;;;102451;1335;22664;-25
2022/06/30 11:49:40;;;;;;;4.40;4.10;;;;;;;;;;102519;1335;22630;-25
2022/06/30 11:52:20;;;;;;;5.40;4.80;;;;;;;;;;102529;1335;22670;-29
2022/06/30 11:54:58;;;;;;;5.10;4.50;;;;;;;;;;102468;1335;22647;-29
2022/06/30 11:57:38;;;;;;;5.80;5.20;;;;;;;;;;102428;1335;22883;-25
2022/06/30 12:00:16;;;;;;;5.10;4.60;;;;;;;;;;102415;1335;22627;-29
2022/06/30 12:02:55;;;;;;;8.00;6.30;;;;;;;;;;102442;1333;22642;-29
2022/06/30 12:05:36;;;;;;;7.40;5.50;;;;;;;;;;102483;1335;22762;-25
2022/06/30 12:08:13;;;;;;;5.80;5.40;;;;;;;;;;102514;1334;22594;-28
2022/06/30 12:10:51;;;;;;;10.00;5.20;;;;;;;;;;102470;1335;22682;-28
2022/06/30 12:13:29;;;;;;;5.40;5.00;;;;;;;;;;102390;1329;22590;-26
2022/06/30 12:16:06;;;;;;;5.30;4.80;;;;;;;;;;102482;1334;22591;-26
2022/06/30 12:18:43;;;;;;;5.80;5.00;;;;;;;;;;102491;1335;22619;-29
2022/06/30 12:21:21;;;;;;;6.60;6.20;;;;;;;;;;102518;1335;22616;-29
2022/06/30 12:23:58;;;;;;;11.40;6.00;;;;;;;;;;102483;1334;22610;-28
2022/06/30 12:26:36;;;;;;;6.40;5.60;;;;;;;;;;102412;1335;22614;-24
2022/06/30 12:29:13;;;;;;;6.00;5.50;;;;;;;;;;102456;1335;22860;-25
2022/06/30 12:31:54;;;;;;;7.80;5.90;;;;;;;;;;102513;1335;22594;-25
2022/06/30 12:34:31;;;;;;;5.30;4.80;;;;;;;;;;102472;1335;22583;-29
2022/06/30 12:37:08;;;;;;;5.30;4.80;;;;;;;;;;102578;1335;22600;-25
2022/06/30 12:39:46;;;;;;;6.20;5.60;;;;;;;;;;102500;1335;22616;-29
2022/06/30 12:42:23;;;;;;;10.30;5.40;;;;;;;;;;102487;1335;23106;-25
2022/06/30 12:45:01;;;;;;;5.30;4.90;;;;;;;;;;102479;1335;22588;-29
2022/06/30 12:47:41;;;;;;;4.10;3.50;;;;;;;;;;102523;1335;22615;-28
2022/06/30 12:50:19;;;;;;;5.10;4.20;;;;;;;;;;102535;1329;22665;-28
2022/06/30 12:53:14;;;;;;;5.40;3.90;;;;;;;;;;102526;1335;22616;-25
2022/06/30 12:55:54;;;;;;;4.90;3.70;;;;;;;;;;102543;1335;22596;-26
2022/06/30 12:58:35;;;;;;;5.30;3.50;;;;;;;;;;102511;1329;22607;-25
2022/06/30 13:01:14;;;;;;;4.10;3.80;;;;;;;;;;102477;1329;22617;-28
2022/06/30 13:03:52;;;;;;;8.10;3.10;;;;;;;;;;102454;1335;24927;-24
2022/06/30 13:06:30;;;;;;;7.60;3.20;;;;;;;;;;102515;1335;22720;-32
2022/06/30 13:09:09;;;;;;;3.60;3.30;;;;;;;;;;102613;1335;22593;-30
2022/06/30 13:11:48;;;;;;;3.80;3.60;;;;;;;;;;102514;1335;22724;-24
2022/06/30 13:14:26;;;;;;;9.10;4.20;;;;;;;;;;102466;1335;22611;-24
2022/06/30 13:17:03;;;;;;;14.40;3.90;;;;;;;;;;102407;1335;22578;-28
2022/06/30 13:19:41;;;;;;;8.40;5.10;;;;;;;;;;102541;1335;22613;-24
2022/06/30 13:22:18;;;;;;;5.10;4.70;;;;;;;;;;102465;1335;22607;-28
2022/06/30 13:24:55;;;;;;;4.00;3.70;;;;;;;;;;102476;1335;22709;-25
2022/06/30 13:27:33;;;;;;;8.20;4.40;;;;;;;;;;102486;1335;22603;-28
2022/06/30 13:30:10;;;;;;;6.90;4.60;;;;;;;;;;102491;1335;22670;-23
2022/06/30 13:32:48;;;;;;;4.40;3.50;;;;;;;;;;102579;1335;22572;-23
2022/06/30 13:35:25;;;;;;;6.20;3.50;;;;;;;;;;102454;1335;22628;-26
2022/06/30 13:38:03;;;;;;;3.10;2.80;;;;;;;;;;102390;1335;22615;-30
2022/06/30 13:40:40;;;;;;;3.30;3.00;;;;;;;;;;102521;1335;22893;-25
2022/06/30 13:43:18;;;;;;;5.50;4.10;;;;;;;;;;102529;1328;22619;-28
2022/06/30 13:45:56;;;;;;;7.10;4.30;;;;;;;;;;102536;1335;22596;-25
2022/06/30 13:48:33;;;;;;;5.10;4.60;;;;;;;;;;102575;1335;22587;-24
2022/06/30 13:51:10;;;;;;;5.50;3.60;;;;;;;;;;102480;1335;22595;-24
2022/06/30 13:53:48;;;;;;;4.70;4.30;;;;;;;;;;102455;1335;22588;-28
2022/06/30 13:56:25;;;;;;;3.00;2.70;;;;;;;;;;102505;1335;22719;-24
2022/06/30 13:59:04;;;;;;;2.40;2.20;;;;;;;;;;102564;1335;22660;-25
2022/06/30 14:01:42;;;;;;;5.90;2.60;;;;;;;;;;102412;1335;22618;-26
2022/06/30 14:04:19;;;;;;;2.90;2.60;;;;;;;;;;102493;1335;22728;-24
2022/06/30 14:06:56;;;;;;;2.90;2.60;;;;;;;;;;102421;1335;22613;-24
2022/06/30 14:09:34;;;;;;;4.40;3.80;;;;;;;;;;102421;1335;22600;-26
2022/06/30 14:12:11;;;;;;;7.30;3.20;;;;;;;;;;102558;1336;22599;-28
2022/06/30 14:14:49;;;;;;;5.60;4.40;;;;;;;;;;102560;1335;22617;-24
2022/06/30 14:17:26;;;;;;;3.50;3.10;;;;;;;;;;102349;1329;277414;-28
2022/06/30 14:20:04;;;;;;;4.50;3.10;;;;;;;;;;102527;1335;22595;-25
2022/06/30 14:22:41;;;;;;;4.10;3.40;;;;;;;;;;102538;1335;22588;-28
2022/06/30 14:25:19;;;;;;;3.50;3.20;;;;;;;;;;102458;1335;22611;-30
2022/06/30 14:27:56;;;;;;;6.90;3.70;;;;;;;;;;102503;1335;22627;-24
2022/06/30 14:30:34;;;;;;;3.70;3.50;;;;;;;;;;102546;1335;22597;-28
2022/06/30 14:33:11;;;;;;;3.80;3.50;;;;;;;;;;102418;1335;22588;-24
2022/06/30 14:35:49;;;;;;;23.30;3.40;;;;;;;;;;102432;1335;22674;-28
2022/06/30 14:38:26;;;;;;;4.00;3.20;;;;;;;;;;102533;1335;22647;-24
2022/06/30 14:41:03;;;;;;;2.60;2.40;;;;;;;;;;102508;1335;22618;-28
2022/06/30 14:43:40;;;;;;;6.30;2.80;;;;;;;;;;102545;1335;22689;-24
2022/06/30 14:46:18;;;;;;;4.60;4.20;;;;;;;;;;102514;1335;22594;-30
2022/06/30 14:48:55;;;;;;;4.70;3.60;;;;;;;;;;102490;1335;22595;-25
2022/06/30 14:51:32;;;;;;;19.00;7.60;;;;;;;;;;102505;1335;22592;-29
2022/06/30 14:54:10;;;;;;;3.00;2.80;;;;;;;;;;102453;1336;22584;-25
2022/06/30 14:56:47;;;;;;;3.80;3.10;;;;;;;;;;102498;1335;22661;-25
2022/06/30 14:59:25;;;;;;;3.50;2.80;;;;;;;;;;102414;1335;22617;-25
2022/06/30 15:02:02;;;;;;;3.20;2.90;;;;;;;;;;102492;1335;22772;-25
2022/06/30 15:04:40;;;;;;;4.10;2.80;;;;;;;;;;102406;1336;22589;-25
2022/06/30 15:07:17;;;;;;;8.90;2.90;;;;;;;;;;102456;1335;22590;-29
2022/06/30 15:09:55;;;;;;;2.80;2.60;;;;;;;;;;102420;1335;22600;-25
2022/06/30 15:12:32;;;;;;;2.50;2.30;;;;;;;;;;102515;1336;22599;-29
2022/06/30 15:15:10;;;;;;;5.10;2.40;;;;;;;;;;102482;1335;22593;-29
2022/06/30 15:17:47;;;;;;;3.30;2.70;;;;;;;;;;102423;1335;22601;-25
2022/06/30 15:20:24;;;;;;;4.50;3.10;;;;;;;;;;102576;1335;22593;-25
2022/06/30 15:25:42;;;;;;;3.20;3.00;;;;;;;;;;102488;1335;22632;-29
2022/06/30 15:28:20;;;;;;;3.40;2.80;;;;;;;;;;102468;1335;22616;-25